createdAt,value
2018-06-10T00:00:08.598Z,58.25
2018-06-10T00:02:37.380Z,58.12
2018-06-10T00:05:06.208Z,57.74
2018-06-10T00:07:35.012Z,58.54
2018-06-10T00:10:03.877Z,58.32
2018-06-10T00:12:32.659Z,57.65
2018-06-10T00:15:01.458Z,57.12
2018-06-10T00:17:30.251Z,57.43
2018-06-10T00:19:59.033Z,57.53
2018-06-10T00:22:27.838Z,58.86
2018-06-10T00:24:56.680Z,58.39
2018-06-10T00:27:25.482Z,58.13
2018-06-10T00:29:54.301Z,57.62
2018-06-10T00:32:23.106Z,58.85
2018-06-10T00:34:51.893Z,58.84
2018-06-10T00:37:20.702Z,58.93
2018-06-10T00:39:49.493Z,59.50
2018-06-10T00:42:18.278Z,60.02
2018-06-10T00:44:47.087Z,60.00
2018-06-10T00:47:15.867Z,58.97
2018-06-10T00:49:44.658Z,61.24
2018-06-10T00:52:13.441Z,61.27
2018-06-10T00:54:42.240Z,61.17
2018-06-10T00:57:11.036Z,60.78
2018-06-10T00:59:39.833Z,60.45
2018-06-10T01:02:08.633Z,62.00
2018-06-10T01:04:37.424Z,61.02
2018-06-10T01:07:06.278Z,61.11
2018-06-10T01:09:35.078Z,61.36
2018-06-10T01:12:03.958Z,61.35
2018-06-10T01:14:32.795Z,61.15
2018-06-10T01:17:01.589Z,63.86
2018-06-10T01:19:30.418Z,63.27
2018-06-10T01:21:59.237Z,63.47
2018-06-10T01:24:28.051Z,62.01
2018-06-10T01:26:56.975Z,64.34
2018-06-10T01:29:25.861Z,63.71
2018-06-10T01:31:54.746Z,63.32
2018-06-10T01:34:23.626Z,65.85
2018-06-10T01:36:52.505Z,63.71
2018-06-10T01:39:21.362Z,63.54
2018-06-10T01:41:50.196Z,65.20
2018-06-10T01:44:19.077Z,65.42
2018-06-10T01:46:47.897Z,64.85
2018-06-10T01:49:16.757Z,64.06
2018-06-10T01:51:45.624Z,64.02
2018-06-10T01:54:14.477Z,65.42
2018-06-10T01:56:43.358Z,65.38
2018-06-10T01:59:12.242Z,64.65
2018-06-10T02:01:41.093Z,63.80
2018-06-10T02:04:09.956Z,64.03
2018-06-10T02:06:38.834Z,63.68
2018-06-10T02:09:07.826Z,64.33
2018-06-10T02:11:36.658Z,63.92
2018-06-10T02:14:05.628Z,64.75
2018-06-10T02:16:34.482Z,63.76
2018-06-10T02:19:03.440Z,64.01
2018-06-10T02:21:32.309Z,65.51
2018-06-10T02:24:01.179Z,66.45
2018-06-10T02:26:30.012Z,64.84
2018-06-10T02:28:58.891Z,65.01
2018-06-10T02:31:27.758Z,65.38
2018-06-10T02:33:56.693Z,64.94
2018-06-10T02:36:25.674Z,64.15
2018-06-10T02:38:54.504Z,63.76
2018-06-10T02:41:23.341Z,64.99
2018-06-10T02:43:52.214Z,63.90
2018-06-10T02:46:21.077Z,63.75
2018-06-10T02:48:49.935Z,63.62
2018-06-10T02:51:18.852Z,64.00
2018-06-10T02:53:47.686Z,63.57
2018-06-10T02:56:16.474Z,62.99
2018-06-10T02:58:45.506Z,63.32
2018-06-10T03:01:15.248Z,63.84
2018-06-10T03:03:44.074Z,64.03
2018-06-10T03:06:12.967Z,62.63
2018-06-10T03:08:41.885Z,62.83
2018-06-10T03:11:10.778Z,62.91
2018-06-10T03:13:39.616Z,62.73
2018-06-10T03:16:08.430Z,62.44
2018-06-10T03:18:37.260Z,62.86
2018-06-10T03:21:06.139Z,62.30
2018-06-10T03:23:34.934Z,62.51
2018-06-10T03:26:03.781Z,64.30
2018-06-10T03:28:32.634Z,65.05
2018-06-10T03:31:01.478Z,64.75
2018-06-10T03:33:30.339Z,64.89
2018-06-10T03:35:59.198Z,65.73
2018-06-10T03:38:28.030Z,65.68
2018-06-10T03:40:56.866Z,65.64
2018-06-10T03:43:25.755Z,64.56
2018-06-10T03:45:54.608Z,64.21
2018-06-10T03:48:23.446Z,63.88
2018-06-10T03:50:52.328Z,64.52
2018-06-10T03:53:21.202Z,65.91
2018-06-10T03:55:50.134Z,66.36
2018-06-10T03:58:19.024Z,67.81
2018-06-10T04:00:47.881Z,67.24
2018-06-10T04:03:16.741Z,66.32
2018-06-10T04:05:45.654Z,66.76
2018-06-10T04:08:14.543Z,67.67
2018-06-10T04:10:43.405Z,67.19
2018-06-10T04:13:12.607Z,65.70
2018-06-10T04:15:41.455Z,66.60
2018-06-10T04:18:10.317Z,67.21
2018-06-10T04:20:39.230Z,66.30
2018-06-10T04:23:07.997Z,66.72
2018-06-10T04:25:36.764Z,66.24
2018-06-10T04:28:05.578Z,65.08
2018-06-10T04:30:34.359Z,65.12
2018-06-10T04:33:03.138Z,64.76
2018-06-10T04:35:31.957Z,65.76
2018-06-10T04:38:00.746Z,65.53
2018-06-10T04:40:29.537Z,65.07
2018-06-10T04:42:58.634Z,65.33
2018-06-10T04:45:27.422Z,65.11
2018-06-10T04:47:56.197Z,64.60
2018-06-10T04:50:25.033Z,64.40
2018-06-10T04:52:57.497Z,63.94
2018-06-10T04:55:26.320Z,63.64
2018-06-10T04:57:55.121Z,63.75
2018-06-10T05:00:23.996Z,63.22
2018-06-10T05:02:52.788Z,63.12
2018-06-10T05:05:21.574Z,62.71
2018-06-10T05:07:50.374Z,62.04
2018-06-10T05:10:19.232Z,62.04
2018-06-10T05:12:48.056Z,62.92
2018-06-10T05:15:16.832Z,62.14
2018-06-10T05:17:45.645Z,61.68
2018-06-10T05:20:14.553Z,62.37
2018-06-10T05:22:43.365Z,61.96
2018-06-10T05:25:12.246Z,61.38
2018-06-10T05:27:41.123Z,61.63
2018-06-10T05:30:09.980Z,61.67
2018-06-10T05:32:38.854Z,60.76
2018-06-10T05:35:07.651Z,61.27
2018-06-10T05:37:36.542Z,61.11
2018-06-10T05:40:05.531Z,60.70
2018-06-10T05:42:34.335Z,60.81
2018-06-10T05:45:03.142Z,60.32
2018-06-10T05:47:31.930Z,59.93
2018-06-10T05:50:00.702Z,60.04
2018-06-10T05:52:29.490Z,60.00
2018-06-10T05:54:58.303Z,59.70
2018-06-10T05:57:27.066Z,59.29
2018-06-10T05:59:55.871Z,59.71
2018-06-10T06:02:24.671Z,59.56
2018-06-10T06:04:53.458Z,59.03
2018-06-10T06:07:22.246Z,58.83
2018-06-10T06:09:51.097Z,59.05
2018-06-10T06:12:19.870Z,59.36
2018-06-10T06:14:48.668Z,59.78
2018-06-10T06:17:17.488Z,59.37
2018-06-10T06:19:46.273Z,58.86
2018-06-10T06:22:15.133Z,58.70
2018-06-10T06:24:43.945Z,58.91
2018-06-10T06:27:12.722Z,58.76
2018-06-10T06:29:41.478Z,58.91
2018-06-10T06:32:10.302Z,58.80
2018-06-10T06:34:39.089Z,58.99
2018-06-10T06:37:07.911Z,58.59
2018-06-10T06:39:36.718Z,58.67
2018-06-10T06:42:05.526Z,58.25
2018-06-10T06:44:34.345Z,58.18
2018-06-10T06:47:03.176Z,58.03
2018-06-10T06:49:31.970Z,58.51
2018-06-10T06:52:00.816Z,58.26
2018-06-10T06:54:29.634Z,58.03
2018-06-10T06:56:58.413Z,58.35
2018-06-10T06:59:27.226Z,57.89
2018-06-10T07:01:55.987Z,58.18
2018-06-10T07:04:24.771Z,58.01
2018-06-10T07:06:53.583Z,57.94
2018-06-10T07:09:22.573Z,58.01
2018-06-10T07:11:51.366Z,57.87
2018-06-10T07:14:20.218Z,57.59
2018-06-10T07:16:49.096Z,57.69
2018-06-10T07:19:17.876Z,58.05
2018-06-10T07:21:46.658Z,57.75
2018-06-10T07:24:15.461Z,57.80
2018-06-10T07:26:44.258Z,57.98
2018-06-10T07:29:13.029Z,58.06
2018-06-10T07:31:41.844Z,58.07
2018-06-10T07:34:10.626Z,58.16
2018-06-10T07:36:39.411Z,58.38
2018-06-10T07:39:08.829Z,58.52
2018-06-10T07:41:37.696Z,58.60
2018-06-10T07:44:06.508Z,58.94
2018-06-10T07:46:35.341Z,58.70
2018-06-10T07:49:04.167Z,58.64
2018-06-10T07:51:32.946Z,58.89
2018-06-10T07:54:01.739Z,58.95
2018-06-10T07:56:30.530Z,59.35
2018-06-10T07:58:59.317Z,59.62
2018-06-10T08:01:28.140Z,59.34
2018-06-10T08:03:56.934Z,59.30
2018-06-10T08:06:25.731Z,59.53
2018-06-10T08:08:54.602Z,59.98
2018-06-10T08:11:23.380Z,59.90
2018-06-10T08:13:52.161Z,59.63
2018-06-10T08:16:20.946Z,59.69
2018-06-10T08:18:49.716Z,59.68
2018-06-10T08:21:18.501Z,59.76
2018-06-10T08:23:47.269Z,59.60
2018-06-10T08:26:16.041Z,59.55
2018-06-10T08:28:44.849Z,60.03
2018-06-10T08:31:13.660Z,59.43
2018-06-10T08:33:42.452Z,59.56
2018-06-10T08:36:11.219Z,59.68
2018-06-10T08:38:40.056Z,59.35
2018-06-10T08:41:08.853Z,59.34
2018-06-10T08:43:37.662Z,59.13
2018-06-10T08:46:06.478Z,59.52
2018-06-10T08:48:35.263Z,59.21
2018-06-10T08:51:04.031Z,58.89
2018-06-10T08:53:32.829Z,59.05
2018-06-10T08:56:01.576Z,59.00
2018-06-10T08:58:30.395Z,58.89
2018-06-10T09:00:59.194Z,58.96
2018-06-10T09:03:27.979Z,58.23
2018-06-10T09:05:56.746Z,58.38
2018-06-10T09:08:25.526Z,58.35
2018-06-10T09:10:54.328Z,58.65
2018-06-10T09:13:23.128Z,58.17
2018-06-10T09:15:51.909Z,58.11
2018-06-10T09:18:20.677Z,58.15
2018-06-10T09:20:49.454Z,58.13
2018-06-10T09:23:18.261Z,57.91
2018-06-10T09:25:47.038Z,57.82
2018-06-10T09:28:15.806Z,57.59
2018-06-10T09:30:44.603Z,57.61
2018-06-10T09:33:13.378Z,57.60
2018-06-10T09:35:42.189Z,57.46
2018-06-10T09:38:11.014Z,57.24
2018-06-10T09:40:39.812Z,56.84
2018-06-10T09:43:08.591Z,57.04
2018-06-10T09:45:37.416Z,57.09
2018-06-10T09:48:06.423Z,56.95
2018-06-10T09:50:35.194Z,56.71
2018-06-10T09:53:03.998Z,56.69
2018-06-10T09:55:32.892Z,56.55
2018-06-10T09:58:01.579Z,56.59
2018-06-10T10:00:30.415Z,56.55
2018-06-10T10:02:59.234Z,56.73
2018-06-10T10:05:28.032Z,56.55
2018-06-10T10:07:56.870Z,56.59
2018-06-10T10:10:25.625Z,56.35
2018-06-10T10:12:54.406Z,56.39
2018-06-10T10:15:23.378Z,56.36
2018-06-10T10:17:52.187Z,56.45
2018-06-10T10:20:20.943Z,56.20
2018-06-10T10:22:49.776Z,56.42
2018-06-10T10:25:18.606Z,56.20
2018-06-10T10:27:47.384Z,55.81
2018-06-10T10:30:16.214Z,56.08
2018-06-10T10:32:45.030Z,56.07
2018-06-10T10:35:13.814Z,55.80
2018-06-10T10:37:42.617Z,55.76
2018-06-10T10:40:11.408Z,55.63
2018-06-10T10:42:40.213Z,55.43
2018-06-10T10:45:09.018Z,55.30
2018-06-10T10:47:37.789Z,55.35
2018-06-10T10:50:06.562Z,55.44
2018-06-10T10:52:35.393Z,55.38
2018-06-10T10:55:04.205Z,55.48
2018-06-10T10:57:32.983Z,55.14
2018-06-10T11:00:01.816Z,55.23
2018-06-10T11:02:30.618Z,55.08
2018-06-10T11:04:59.530Z,55.18
2018-06-10T11:07:28.389Z,55.14
2018-06-10T11:09:57.200Z,54.92
2018-06-10T11:12:25.994Z,54.63
2018-06-10T11:14:54.802Z,54.83
2018-06-10T11:17:23.556Z,54.85
2018-06-10T11:19:52.326Z,54.68
2018-06-10T11:22:21.128Z,54.90
2018-06-10T11:24:49.901Z,54.44
2018-06-10T11:27:18.680Z,54.57
2018-06-10T11:29:47.474Z,54.44
2018-06-10T11:32:16.250Z,54.46
2018-06-10T11:34:45.057Z,54.32
2018-06-10T11:37:13.974Z,54.41
2018-06-10T11:39:42.767Z,54.13
2018-06-10T11:42:11.609Z,54.28
2018-06-10T11:44:40.452Z,54.38
2018-06-10T11:47:09.234Z,54.08
2018-06-10T11:49:38.025Z,54.07
2018-06-10T11:52:07.024Z,54.06
2018-06-10T11:54:35.740Z,54.13
2018-06-10T11:57:04.529Z,54.03
2018-06-10T11:59:33.319Z,54.15
2018-06-10T12:02:02.298Z,54.08
2018-06-10T12:04:31.102Z,54.05
2018-06-10T12:06:59.914Z,54.12
2018-06-10T12:09:28.758Z,54.00
2018-06-10T12:11:57.511Z,54.06
2018-06-10T12:14:26.316Z,54.23
2018-06-10T12:16:55.135Z,54.02
2018-06-10T12:19:23.889Z,54.04
2018-06-10T12:21:52.694Z,53.88
2018-06-10T12:24:21.454Z,53.57
2018-06-10T12:26:50.304Z,54.00
2018-06-10T12:29:19.121Z,53.84
2018-06-10T12:31:47.951Z,53.94
2018-06-10T12:34:16.712Z,53.90
2018-06-10T12:36:45.536Z,53.90
2018-06-10T12:39:14.285Z,53.87
2018-06-10T12:41:43.109Z,53.85
2018-06-10T12:44:11.885Z,53.77
2018-06-10T12:46:40.638Z,53.87
2018-06-10T12:49:09.499Z,53.73
2018-06-10T12:51:38.325Z,53.51
2018-06-10T12:54:07.145Z,53.48
2018-06-10T12:56:35.931Z,53.86
2018-06-10T12:59:04.811Z,53.75
2018-06-10T13:01:33.596Z,53.55
2018-06-10T13:04:02.347Z,53.62
2018-06-10T13:06:31.146Z,53.51
2018-06-10T13:08:59.922Z,53.41
2018-06-10T13:11:28.740Z,53.57
2018-06-10T13:13:57.566Z,53.31
2018-06-10T13:16:27.195Z,53.40
2018-06-10T13:18:55.953Z,53.43
2018-06-10T13:21:24.788Z,53.29
2018-06-10T13:23:53.579Z,53.28
2018-06-10T13:26:22.348Z,53.28
2018-06-10T13:28:51.157Z,53.26
2018-06-10T13:31:19.934Z,53.33
2018-06-10T13:33:48.739Z,53.40
2018-06-10T13:36:17.483Z,53.38
2018-06-10T13:38:46.395Z,53.23
2018-06-10T13:41:15.200Z,53.53
2018-06-10T13:43:44.093Z,53.36
2018-06-10T13:46:12.973Z,53.68
2018-06-10T13:48:41.776Z,53.67
2018-06-10T13:51:10.595Z,54.12
2018-06-10T13:53:39.396Z,53.86
2018-06-10T13:56:08.183Z,53.98
2018-06-10T13:58:37.008Z,53.98
2018-06-10T14:01:05.767Z,53.91
2018-06-10T14:03:34.534Z,53.61
2018-06-10T14:06:03.463Z,53.49
2018-06-10T14:08:32.266Z,53.21
2018-06-10T14:11:01.066Z,53.16
2018-06-10T14:13:29.957Z,52.81
2018-06-10T14:15:58.775Z,53.01
2018-06-10T14:18:27.601Z,52.78
2018-06-10T14:20:56.507Z,52.70
2018-06-10T14:23:25.301Z,52.65
2018-06-10T14:25:54.122Z,52.77
2018-06-10T14:28:23.518Z,52.59
2018-06-10T14:30:52.314Z,52.41
2018-06-10T14:33:21.118Z,52.14
2018-06-10T14:35:49.946Z,51.97
2018-06-10T14:38:18.709Z,52.05
2018-06-10T14:40:47.522Z,51.81
2018-06-10T14:43:16.385Z,51.97
2018-06-10T14:45:45.179Z,51.97
2018-06-10T14:48:13.942Z,51.88
2018-06-10T14:50:42.797Z,51.94
2018-06-10T14:53:11.591Z,52.13
2018-06-10T14:55:40.421Z,51.88
2018-06-10T14:58:09.197Z,52.10
2018-06-10T15:00:37.999Z,51.83
2018-06-10T15:03:06.758Z,51.79
2018-06-10T15:05:35.562Z,51.75
2018-06-10T15:08:04.318Z,51.71
2018-06-10T15:10:33.085Z,51.70
2018-06-10T15:13:01.906Z,51.66
2018-06-10T15:15:30.720Z,51.58
2018-06-10T15:17:59.514Z,51.40
2018-06-10T15:20:28.310Z,51.31
2018-06-10T15:22:57.099Z,51.54
2018-06-10T15:25:25.921Z,51.60
2018-06-10T15:27:54.789Z,51.64
2018-06-10T15:30:23.621Z,51.83
2018-06-10T15:32:52.460Z,51.59
2018-06-10T15:35:21.309Z,51.62
2018-06-10T15:37:50.147Z,51.52
2018-06-10T15:40:18.975Z,51.60
2018-06-10T15:42:47.886Z,51.57
2018-06-10T15:45:16.729Z,51.38
2018-06-10T15:47:45.542Z,51.30
2018-06-10T15:50:14.386Z,51.33
2018-06-10T15:52:43.149Z,51.34
2018-06-10T15:55:11.962Z,51.46
2018-06-10T15:57:40.783Z,51.19
2018-06-10T16:00:09.578Z,51.35
2018-06-10T16:02:38.409Z,51.41
2018-06-10T16:05:07.332Z,51.42
2018-06-10T16:07:37.817Z,51.50
2018-06-10T16:10:06.674Z,51.56
2018-06-10T16:12:35.510Z,51.45
2018-06-10T16:15:04.389Z,51.53
2018-06-10T16:17:33.166Z,51.70
2018-06-10T16:20:02.115Z,51.81
2018-06-10T16:22:30.942Z,51.98
2018-06-10T16:24:59.749Z,52.27
2018-06-10T16:27:28.536Z,52.45
2018-06-10T16:29:57.315Z,52.30
2018-06-10T16:32:33.115Z,52.21
2018-06-10T16:35:01.874Z,52.12
2018-06-10T16:37:30.624Z,52.53
2018-06-10T16:39:59.446Z,52.27
2018-06-10T16:42:28.239Z,52.35
2018-06-10T16:44:57.129Z,52.29
2018-06-10T16:47:25.949Z,52.43
2018-06-10T16:49:54.741Z,52.41
2018-06-10T16:52:23.542Z,52.45
2018-06-10T16:54:52.352Z,52.56
2018-06-10T16:57:21.137Z,52.57
2018-06-10T16:59:49.927Z,52.59
2018-06-10T17:02:18.741Z,52.60
2018-06-10T17:04:47.550Z,52.64
2018-06-10T17:07:16.318Z,52.54
2018-06-10T17:09:45.230Z,52.72
2018-06-10T17:12:14.095Z,52.57
2018-06-10T17:14:42.915Z,52.65
2018-06-10T17:17:11.807Z,52.52
2018-06-10T17:19:40.606Z,52.66
2018-06-10T17:22:09.446Z,52.64
2018-06-10T17:24:38.444Z,52.77
2018-06-10T17:27:07.303Z,52.61
2018-06-10T17:29:36.146Z,52.71
2018-06-10T17:32:05.169Z,52.63
2018-06-10T17:34:34.023Z,52.75
2018-06-10T17:37:02.850Z,52.65
2018-06-10T17:39:31.704Z,52.77
2018-06-10T17:42:00.506Z,52.72
2018-06-10T17:44:29.386Z,52.64
2018-06-10T17:46:58.220Z,52.67
2018-06-10T17:49:27.057Z,52.35
2018-06-10T17:51:55.854Z,52.63
2018-06-10T17:54:24.658Z,52.77
2018-06-10T17:56:53.522Z,52.65
2018-06-10T17:59:22.298Z,52.64
2018-06-10T18:01:51.101Z,52.92
2018-06-10T18:04:19.946Z,52.99
2018-06-10T18:06:48.750Z,52.79
2018-06-10T18:09:17.756Z,53.13
2018-06-10T18:11:46.598Z,53.17
2018-06-10T18:14:15.459Z,53.03
2018-06-10T18:16:44.382Z,53.02
2018-06-10T18:19:13.220Z,53.29
2018-06-10T18:21:42.071Z,53.20
2018-06-10T18:24:11.028Z,53.31
2018-06-10T18:26:40.107Z,53.65
2018-06-10T18:29:08.894Z,53.49
2018-06-10T18:31:37.746Z,53.55
2018-06-10T18:34:06.580Z,53.68
2018-06-10T18:36:35.410Z,54.02
2018-06-10T18:39:04.592Z,53.98
2018-06-10T18:41:33.444Z,53.95
2018-06-10T18:44:02.354Z,54.11
2018-06-10T18:46:31.323Z,54.63
2018-06-10T18:49:00.188Z,54.81
2018-06-10T18:51:29.095Z,55.01
2018-06-10T18:53:57.972Z,54.86
2018-06-10T18:56:26.830Z,55.14
2018-06-10T18:58:55.676Z,56.13
2018-06-10T19:01:24.568Z,55.99
2018-06-10T19:03:53.489Z,55.77
2018-06-10T19:06:22.403Z,55.65
2018-06-10T19:08:51.976Z,56.22
2018-06-10T19:11:20.782Z,56.60
2018-06-10T19:13:49.619Z,57.00
2018-06-10T19:16:18.511Z,56.36
2018-06-10T19:18:47.339Z,55.96
2018-06-10T19:21:16.236Z,56.60
2018-06-10T19:23:45.033Z,56.28
2018-06-10T19:26:13.842Z,57.23
2018-06-10T19:28:42.806Z,56.74
2018-06-10T19:31:11.774Z,56.83
2018-06-10T19:33:40.600Z,57.23
2018-06-10T19:36:09.454Z,57.41
2018-06-10T19:38:38.368Z,56.90
2018-06-10T19:41:07.250Z,57.09
2018-06-10T19:43:36.087Z,56.78
2018-06-10T19:46:04.942Z,58.15
2018-06-10T19:48:33.805Z,57.25
2018-06-10T19:51:02.746Z,58.39
2018-06-10T19:53:31.569Z,58.78
2018-06-10T19:56:00.503Z,58.69
2018-06-10T19:58:29.366Z,58.17
2018-06-10T20:00:58.228Z,59.03
2018-06-10T20:03:27.113Z,58.47
2018-06-10T20:05:56.004Z,59.05
2018-06-10T20:08:24.838Z,58.81
2018-06-10T20:10:53.682Z,58.53
2018-06-10T20:13:22.510Z,58.84
2018-06-10T20:15:51.354Z,58.71
2018-06-10T20:18:20.212Z,59.00
2018-06-10T20:20:49.055Z,59.54
2018-06-10T20:23:17.866Z,59.63
2018-06-10T20:25:46.661Z,60.32
2018-06-10T20:28:15.506Z,59.97
2018-06-10T20:30:44.438Z,59.72
2018-06-10T20:33:13.170Z,60.93
2018-06-10T20:35:42.025Z,61.50
2018-06-10T20:38:10.915Z,60.75
2018-06-10T20:40:39.854Z,61.53
2018-06-10T20:43:09.260Z,60.70
2018-06-10T20:45:38.221Z,61.44
2018-06-10T20:48:07.040Z,60.67
2018-06-10T20:50:35.862Z,60.63
2018-06-10T20:53:04.722Z,61.08
2018-06-10T20:55:33.609Z,61.53
2018-06-10T20:58:02.384Z,62.24
2018-06-10T21:00:31.214Z,62.78
2018-06-10T21:03:00.098Z,61.67
2018-06-10T21:05:28.946Z,61.64
2018-06-10T21:07:57.769Z,61.81
2018-06-10T21:10:26.578Z,61.80
2018-06-10T21:12:55.377Z,63.33
2018-06-10T21:15:24.241Z,62.49
2018-06-10T21:17:53.050Z,62.21
2018-06-10T21:20:21.822Z,63.68
2018-06-10T21:22:50.665Z,63.01
2018-06-10T21:25:19.487Z,64.07
2018-06-10T21:27:48.317Z,63.41
2018-06-10T21:30:17.195Z,63.58
2018-06-10T21:32:46.022Z,62.96
2018-06-10T21:35:14.814Z,62.19
2018-06-10T21:37:43.635Z,64.60
2018-06-10T21:40:12.451Z,63.69
2018-06-10T21:42:41.261Z,63.72
2018-06-10T21:45:10.106Z,63.14
2018-06-10T21:47:38.910Z,65.31
2018-06-10T21:50:07.727Z,63.45
2018-06-10T21:52:36.702Z,63.77
2018-06-10T21:55:05.523Z,63.66
2018-06-10T21:57:34.333Z,64.08
2018-06-10T22:00:03.214Z,63.79
2018-06-10T22:02:32.015Z,64.01
2018-06-10T22:05:00.854Z,63.94
2018-06-10T22:07:29.686Z,63.28
2018-06-10T22:09:58.511Z,63.35
2018-06-10T22:12:27.341Z,63.17
2018-06-10T22:14:56.211Z,63.51
2018-06-10T22:17:25.058Z,63.87
2018-06-10T22:19:53.871Z,65.08
2018-06-10T22:22:22.814Z,65.46
2018-06-10T22:24:51.646Z,66.32
2018-06-10T22:27:20.447Z,67.21
2018-06-10T22:29:49.252Z,67.34
2018-06-10T22:32:18.053Z,67.72
2018-06-10T22:34:46.878Z,67.53
2018-06-10T22:37:15.724Z,67.62
2018-06-10T22:39:44.522Z,67.93
2018-06-10T22:42:13.351Z,68.36
2018-06-10T22:44:42.186Z,67.74
2018-06-10T22:47:11.097Z,68.56
2018-06-10T22:49:39.931Z,67.33
2018-06-10T22:52:08.779Z,67.96
2018-06-10T22:54:40.654Z,67.23
2018-06-10T22:57:09.682Z,66.91
2018-06-10T22:59:38.512Z,66.48
2018-06-10T23:02:08.256Z,66.20
2018-06-10T23:04:37.110Z,66.74
2018-06-10T23:07:06.023Z,66.10
2018-06-10T23:09:34.825Z,66.46
2018-06-10T23:12:03.667Z,66.38
2018-06-10T23:14:32.486Z,65.98
2018-06-10T23:17:01.318Z,65.15
2018-06-10T23:19:30.189Z,64.92
2018-06-10T23:21:58.976Z,64.28
2018-06-10T23:24:27.796Z,63.47
2018-06-10T23:26:56.642Z,64.59
2018-06-10T23:29:25.440Z,64.73
2018-06-10T23:31:54.256Z,65.00
2018-06-10T23:34:23.122Z,65.24
2018-06-10T23:36:51.921Z,64.75
2018-06-10T23:39:20.748Z,65.07
2018-06-10T23:41:49.559Z,64.41
2018-06-10T23:44:18.418Z,63.51
2018-06-10T23:46:47.228Z,62.53
2018-06-10T23:49:16.643Z,61.21
2018-06-10T23:51:46.130Z,60.73
2018-06-10T23:54:14.955Z,59.85
2018-06-10T23:56:43.838Z,59.16
2018-06-10T23:59:12.680Z,57.19
